createdAt,value
2023-04-05T00:01:33.893Z,99348.00
2023-04-05T00:04:02.923Z,99357.88
2023-04-05T00:06:31.622Z,99350.66
2023-04-05T00:09:03.816Z,99334.64
2023-04-05T00:11:33.052Z,99328.80
2023-04-05T00:14:01.931Z,99341.95
2023-04-05T00:16:31.221Z,99341.65
2023-04-05T00:19:00.323Z,99331.27
2023-04-05T00:21:29.855Z,99331.77
2023-04-05T00:23:59.210Z,99331.04
2023-04-05T00:26:27.629Z,99326.98
2023-04-05T00:28:57.606Z,99323.51
2023-04-05T00:31:25.942Z,99324.90
2023-04-05T00:33:54.131Z,99324.35
2023-04-05T00:36:22.254Z,99323.87
2023-04-05T00:38:50.394Z,99324.11
2023-04-05T00:41:18.684Z,99321.23
2023-04-05T00:43:47.237Z,99318.80
2023-04-05T00:46:17.297Z,99313.11
2023-04-05T00:48:45.440Z,99302.48
2023-04-05T00:51:13.467Z,99300.25
2023-04-05T00:53:46.198Z,99297.13
2023-04-05T00:56:15.482Z,99292.65
2023-04-05T00:58:52.224Z,99287.33
2023-04-05T01:01:22.592Z,99289.74
2023-04-05T01:04:00.155Z,99287.63
2023-04-05T01:07:00.471Z,99284.30
2023-04-05T01:09:36.272Z,99284.60
2023-04-05T01:12:09.272Z,99286.81
2023-04-05T01:14:45.704Z,99288.70
2023-04-05T01:17:14.015Z,99285.56
2023-04-05T01:19:48.274Z,99287.27
2023-04-05T01:22:20.488Z,99278.98
2023-04-05T01:24:58.121Z,99279.51
2023-04-05T01:28:04.000Z,99281.25
2023-04-05T01:30:39.785Z,99288.03
2023-04-05T01:33:19.925Z,99288.92
2023-04-05T01:36:09.289Z,99279.38
2023-04-05T01:38:39.640Z,99272.25
2023-04-05T01:41:07.769Z,99268.81
2023-04-05T01:43:37.320Z,99269.84
2023-04-05T01:46:05.731Z,99274.54
2023-04-05T01:48:33.830Z,99278.55
2023-04-05T01:51:02.421Z,99275.79
2023-04-05T01:53:31.058Z,99265.08
2023-04-05T01:56:02.610Z,99262.30
2023-04-05T01:58:31.631Z,99259.14
2023-04-05T02:00:59.692Z,99256.91
2023-04-05T02:03:28.610Z,99251.94
2023-04-05T02:05:58.248Z,99248.02
2023-04-05T02:08:26.926Z,99241.32
2023-04-05T02:10:55.099Z,99235.14
2023-04-05T02:13:25.954Z,99238.59
2023-04-05T02:15:54.013Z,99234.59
2023-04-05T02:18:22.836Z,99232.52
2023-04-05T02:20:51.549Z,99227.36
2023-04-05T02:23:20.010Z,99224.11
2023-04-05T02:25:48.996Z,99218.95
2023-04-05T02:28:18.368Z,99219.86
2023-04-05T02:30:46.900Z,99222.98
2023-04-05T02:33:15.984Z,99227.30
2023-04-05T02:35:44.474Z,99227.13
2023-04-05T02:38:13.146Z,99224.86
2023-04-05T02:40:42.326Z,99223.64
2023-04-05T02:43:10.943Z,99216.40
2023-04-05T02:45:40.223Z,99221.08
2023-04-05T02:48:09.087Z,99226.03
2023-04-05T02:50:37.513Z,99227.05
2023-04-05T02:53:09.563Z,99220.28
2023-04-05T02:55:42.145Z,99214.52
2023-04-05T02:58:10.730Z,99215.00
2023-04-05T03:00:51.098Z,99215.52
2023-04-05T03:03:21.987Z,99223.48
2023-04-05T03:05:59.286Z,99226.77
2023-04-05T03:08:32.678Z,99219.33
2023-04-05T03:11:07.561Z,99218.79
2023-04-05T03:13:38.955Z,99218.81
2023-04-05T03:16:12.828Z,99217.14
2023-04-05T03:18:42.437Z,99220.80
2023-04-05T03:21:18.346Z,99219.96
2023-04-05T03:23:53.891Z,99224.84
2023-04-05T03:26:25.539Z,99221.77
2023-04-05T03:28:54.410Z,99222.59
2023-04-05T03:31:30.485Z,99217.37
2023-04-05T03:34:01.948Z,99214.10
2023-04-05T03:36:43.008Z,99210.67
2023-04-05T03:39:31.549Z,99212.55
2023-04-05T03:42:01.732Z,99212.72
2023-04-05T03:44:30.268Z,99215.00
2023-04-05T03:47:05.005Z,99217.31
2023-04-05T03:49:34.383Z,99212.86
2023-04-05T03:52:02.434Z,99213.19
2023-04-05T03:54:31.296Z,99213.83
2023-04-05T03:57:01.485Z,99219.68
2023-04-05T03:59:30.222Z,99221.87
2023-04-05T04:01:59.086Z,99220.95
2023-04-05T04:04:28.330Z,99219.57
2023-04-05T04:06:58.413Z,99223.16
2023-04-05T04:09:29.966Z,99214.38
2023-04-05T04:12:01.184Z,99212.98
2023-04-05T04:14:32.777Z,99204.23
2023-04-05T04:17:11.337Z,99203.14
2023-04-05T04:20:14.964Z,99203.09
2023-04-05T04:22:58.688Z,99201.45
2023-04-05T04:25:46.369Z,99202.78
2023-04-05T04:28:39.032Z,99197.04
2023-04-05T04:31:25.745Z,99197.57
2023-04-05T04:34:02.527Z,99199.36
2023-04-05T04:37:00.869Z,99194.69
2023-04-05T04:40:03.551Z,99197.26
2023-04-05T04:42:46.960Z,99197.11
2023-04-05T04:45:34.959Z,99190.36
2023-04-05T04:48:21.894Z,99186.88
2023-04-05T04:51:04.526Z,99192.51
2023-04-05T04:53:36.144Z,99199.02
2023-04-05T04:56:07.685Z,99203.29
2023-04-05T04:58:36.151Z,99202.17
2023-04-05T05:01:09.931Z,99203.48
2023-04-05T05:03:40.033Z,99202.41
2023-04-05T05:06:08.553Z,99199.52
2023-04-05T05:08:37.485Z,99204.67
2023-04-05T05:11:07.585Z,99208.74
2023-04-05T05:13:36.478Z,99205.59
2023-04-05T05:16:05.752Z,99204.39
2023-04-05T05:18:40.280Z,99200.84
2023-04-05T05:21:08.322Z,99198.08
2023-04-05T05:23:36.435Z,99196.52
2023-04-05T05:26:05.149Z,99193.72
2023-04-05T05:28:33.260Z,99193.84
2023-04-05T05:31:01.682Z,99190.17
2023-04-05T05:33:31.377Z,99186.13
2023-04-05T05:35:59.537Z,99184.65
2023-04-05T05:38:27.828Z,99179.72
2023-04-05T05:40:57.334Z,99179.80
2023-04-05T05:43:25.429Z,99180.26
2023-04-05T05:45:53.752Z,99179.17
2023-04-05T05:48:22.955Z,99184.70
2023-04-05T05:50:51.142Z,99181.77
2023-04-05T05:53:19.367Z,99183.84
2023-04-05T05:55:47.707Z,99179.46
2023-04-05T05:58:17.022Z,99180.84
2023-04-05T06:00:49.211Z,99176.73
2023-04-05T06:03:19.467Z,99176.36
2023-04-05T06:05:54.700Z,99179.67
2023-04-05T06:08:23.699Z,99177.77
2023-04-05T06:10:52.377Z,99175.35
2023-04-05T06:13:20.552Z,99170.84
2023-04-05T06:15:49.041Z,99172.02
2023-04-05T06:18:21.067Z,99173.91
2023-04-05T06:20:49.126Z,99173.73
2023-04-05T06:23:18.536Z,99175.66
2023-04-05T06:25:46.547Z,99177.77
2023-04-05T06:28:14.662Z,99178.98
2023-04-05T06:30:43.480Z,99179.80
2023-04-05T06:33:12.234Z,99185.98
2023-04-05T06:35:40.744Z,99185.12
2023-04-05T06:38:09.639Z,99184.98
2023-04-05T06:40:38.211Z,99183.39
2023-04-05T06:43:07.719Z,99188.05
2023-04-05T06:45:36.156Z,99186.33
2023-04-05T06:48:08.781Z,99183.52
2023-04-05T06:50:37.225Z,99182.96
2023-04-05T06:53:06.557Z,99186.73
2023-04-05T06:55:34.972Z,99190.55
2023-04-05T06:58:03.186Z,99191.57
2023-04-05T07:00:34.132Z,99188.78
2023-04-05T07:03:03.916Z,99188.58
2023-04-05T07:05:32.324Z,99192.05
2023-04-05T07:08:01.862Z,99189.27
2023-04-05T07:10:30.220Z,99193.25
2023-04-05T07:12:58.249Z,99189.45
2023-04-05T07:15:34.563Z,99188.71
2023-04-05T07:18:03.532Z,99179.99
2023-04-05T07:20:31.634Z,99177.38
2023-04-05T07:22:59.772Z,99174.77
2023-04-05T07:25:28.335Z,99170.42
2023-04-05T07:27:57.241Z,99158.78
2023-04-05T07:30:27.889Z,99159.43
2023-04-05T07:32:58.728Z,99159.00
2023-04-05T07:35:27.965Z,99161.48
2023-04-05T07:37:57.735Z,99162.41
2023-04-05T07:40:26.182Z,99162.86
2023-04-05T07:42:54.540Z,99163.35
2023-04-05T07:45:23.071Z,99164.48
2023-04-05T07:47:51.709Z,99162.00
2023-04-05T07:50:20.904Z,99159.31
2023-04-05T07:52:49.165Z,99159.92
2023-04-05T07:55:17.836Z,99164.52
2023-04-05T07:57:46.124Z,99158.03
2023-04-05T08:00:15.609Z,99160.80
2023-04-05T08:02:49.681Z,99161.14
2023-04-05T08:05:18.531Z,99163.38
2023-04-05T08:07:47.021Z,99166.50
2023-04-05T08:10:18.430Z,99167.84
2023-04-05T08:12:46.691Z,99165.17
2023-04-05T08:15:19.087Z,99165.79
2023-04-05T08:17:49.637Z,99169.05
2023-04-05T08:20:17.836Z,99172.06
2023-04-05T08:22:45.979Z,99173.90
2023-04-05T08:25:14.128Z,99172.52
2023-04-05T08:27:42.306Z,99179.21
2023-04-05T08:30:10.954Z,99177.63
2023-04-05T08:32:39.302Z,99173.91
2023-04-05T08:35:07.680Z,99169.48
2023-04-05T08:37:36.319Z,99166.30
2023-04-05T08:40:05.094Z,99168.48
2023-04-05T08:42:45.162Z,99168.31
2023-04-05T08:45:14.491Z,99173.91
2023-04-05T08:47:43.206Z,99177.04
2023-04-05T08:50:13.741Z,99170.80
2023-04-05T08:52:43.358Z,99172.09
2023-04-05T08:55:11.508Z,99171.30
2023-04-05T08:57:40.695Z,99173.59
2023-04-05T09:00:09.316Z,99174.11
2023-04-05T09:02:39.693Z,99172.20
2023-04-05T09:05:09.726Z,99172.17
2023-04-05T09:07:37.990Z,99170.71
2023-04-05T09:10:06.949Z,99168.55
2023-04-05T09:12:36.038Z,99167.10
2023-04-05T09:15:04.414Z,99165.50
2023-04-05T09:17:33.472Z,99162.35
2023-04-05T09:20:02.181Z,99161.89
2023-04-05T09:22:31.501Z,99162.86
2023-04-05T09:25:01.526Z,99163.42
2023-04-05T09:27:30.370Z,99161.30
2023-04-05T09:30:00.990Z,99165.02
2023-04-05T09:32:31.160Z,99166.27
2023-04-05T09:35:04.108Z,99164.21
2023-04-05T09:37:34.201Z,99161.93
2023-04-05T09:40:04.491Z,99163.48
2023-04-05T09:42:45.066Z,99161.36
2023-04-05T09:45:15.186Z,99166.02
2023-04-05T09:48:00.168Z,99166.02
2023-04-05T09:50:29.389Z,99161.80
2023-04-05T09:53:16.074Z,99159.06
2023-04-05T09:55:45.423Z,99157.25
2023-04-05T09:58:21.397Z,99156.29
2023-04-05T10:00:57.907Z,99157.38
2023-04-05T10:03:32.829Z,99156.67
2023-04-05T10:06:01.476Z,99157.92
2023-04-05T10:08:32.937Z,99158.55
2023-04-05T10:11:01.176Z,99149.81
2023-04-05T10:13:29.450Z,99150.19
2023-04-05T10:15:59.490Z,99152.40
2023-04-05T10:18:30.549Z,99152.29
2023-04-05T10:20:59.954Z,99149.61
2023-04-05T10:23:28.993Z,99150.27
2023-04-05T10:26:00.202Z,99150.50
2023-04-05T10:28:32.989Z,99151.77
2023-04-05T10:31:37.025Z,99150.60
2023-04-05T10:34:07.443Z,99149.83
2023-04-05T10:36:51.215Z,99152.23
2023-04-05T10:39:26.166Z,99150.16
2023-04-05T10:41:58.736Z,99147.74
2023-04-05T10:44:27.178Z,99146.59
2023-04-05T10:46:55.846Z,99144.98
2023-04-05T10:49:36.869Z,99145.45
2023-04-05T10:52:09.190Z,99145.44
2023-04-05T10:54:37.729Z,99144.79
2023-04-05T10:57:09.337Z,99151.48
2023-04-05T10:59:44.481Z,99154.10
2023-04-05T11:02:13.188Z,99154.11
2023-04-05T11:04:42.932Z,99154.71
2023-04-05T11:07:15.798Z,99155.05
2023-04-05T11:10:01.321Z,99154.90
2023-04-05T11:12:48.602Z,99151.25
2023-04-05T11:15:27.838Z,99152.23
2023-04-05T11:18:12.967Z,99149.20
2023-04-05T11:20:51.804Z,99144.81
2023-04-05T11:23:21.341Z,99152.92
2023-04-05T11:26:05.781Z,99153.61
2023-04-05T11:28:39.664Z,99153.30
2023-04-05T11:31:21.409Z,99149.39
2023-04-05T11:33:57.609Z,99147.34
2023-04-05T11:36:34.995Z,99145.88
2023-04-05T11:39:18.811Z,99145.83
2023-04-05T11:42:02.601Z,99149.61
2023-04-05T11:44:48.611Z,99145.08
2023-04-05T11:47:17.708Z,99143.70
2023-04-05T11:49:47.395Z,99145.83
2023-04-05T11:52:17.335Z,99148.49
2023-04-05T11:54:49.905Z,99144.39
2023-04-05T11:57:20.965Z,99138.44
2023-04-05T11:59:52.747Z,99141.47
2023-04-05T12:02:21.695Z,99144.11
2023-04-05T12:04:57.468Z,99139.13
2023-04-05T12:07:28.474Z,99141.11
2023-04-05T12:10:16.237Z,99135.61
2023-04-05T12:12:49.218Z,99133.34
2023-04-05T12:15:19.342Z,99128.09
2023-04-05T12:17:54.700Z,99117.49
2023-04-05T12:20:25.137Z,99115.72
2023-04-05T12:22:54.202Z,99115.90
2023-04-05T12:25:22.499Z,99112.06
2023-04-05T12:27:51.504Z,99110.84
2023-04-05T12:30:22.295Z,99107.71
2023-04-05T12:32:55.456Z,99108.20
2023-04-05T12:35:34.739Z,99104.35
2023-04-05T12:38:05.771Z,99096.96
2023-04-05T12:40:34.309Z,99099.44
2023-04-05T12:43:04.321Z,99101.21
2023-04-05T12:45:40.595Z,99102.28
2023-04-05T12:48:13.765Z,99098.46
2023-04-05T12:50:46.680Z,99099.75
2023-04-05T12:53:28.823Z,99100.31
2023-04-05T12:55:58.447Z,99099.38
2023-04-05T12:58:35.648Z,99096.55
2023-04-05T13:01:04.113Z,99090.44
2023-04-05T13:03:32.939Z,99084.52
2023-04-05T13:06:01.137Z,99089.59
2023-04-05T13:08:29.656Z,99087.09
2023-04-05T13:11:00.992Z,99086.21
2023-04-05T13:13:34.477Z,99085.75
2023-04-05T13:16:02.969Z,99084.52
2023-04-05T13:18:31.487Z,99088.54
2023-04-05T13:20:59.586Z,99090.84
2023-04-05T13:23:27.848Z,99091.98
2023-04-05T13:25:56.120Z,99082.86
2023-04-05T13:28:25.960Z,99080.96
2023-04-05T13:30:54.656Z,99076.13
2023-04-05T13:33:24.083Z,99075.96
2023-04-05T13:35:52.392Z,99069.48
2023-04-05T13:38:21.982Z,99078.83
2023-04-05T13:40:50.064Z,99077.05
2023-04-05T13:43:18.313Z,99073.36
2023-04-05T13:45:47.926Z,99070.41
2023-04-05T13:48:16.285Z,99066.88
2023-04-05T13:50:48.617Z,99058.75
2023-04-05T13:53:17.386Z,99062.16
2023-04-05T13:55:45.584Z,99063.55
2023-04-05T13:58:16.574Z,99064.56
2023-04-05T14:00:45.279Z,99068.84
2023-04-05T14:03:13.825Z,99075.85
2023-04-05T14:05:42.702Z,99066.21
2023-04-05T14:08:10.858Z,99071.05
2023-04-05T14:10:39.515Z,99069.29
2023-04-05T14:13:08.594Z,99068.17
2023-04-05T14:15:36.642Z,99067.91
2023-04-05T14:18:10.063Z,99065.78
2023-04-05T14:20:40.208Z,99063.92
2023-04-05T14:23:08.964Z,99060.46
2023-04-05T14:25:37.822Z,99064.38
2023-04-05T14:28:07.530Z,99063.10
2023-04-05T14:30:39.634Z,99060.77
2023-04-05T14:33:09.009Z,99059.02
2023-04-05T14:35:37.480Z,99060.28
2023-04-05T14:38:12.616Z,99057.16
2023-04-05T14:40:43.104Z,99058.29
2023-04-05T14:43:11.688Z,99056.09
2023-04-05T14:45:39.945Z,99049.38
2023-04-05T14:48:08.168Z,99056.14
2023-04-05T14:50:36.550Z,99052.91
2023-04-05T14:53:05.312Z,99056.88
2023-04-05T14:55:33.656Z,99055.11
2023-04-05T14:58:01.847Z,99057.27
2023-04-05T15:00:30.066Z,99053.59
2023-04-05T15:03:01.387Z,99061.15
2023-04-05T15:05:31.140Z,99062.85
2023-04-05T15:07:59.358Z,99062.91
2023-04-05T15:10:39.541Z,99069.53
2023-04-05T15:13:10.573Z,99073.70
2023-04-05T15:15:38.805Z,99077.06
2023-04-05T15:18:21.033Z,99077.66
2023-04-05T15:20:49.565Z,99076.74
2023-04-05T15:23:18.301Z,99073.52
2023-04-05T15:25:47.766Z,99069.47
2023-04-05T15:28:15.933Z,99066.35
2023-04-05T15:30:45.884Z,99061.23
2023-04-05T15:33:14.473Z,99058.16
2023-04-05T15:35:42.583Z,99070.98
2023-04-05T15:38:11.412Z,99067.59
2023-04-05T15:40:40.383Z,99066.08
2023-04-05T15:43:08.511Z,99063.67
2023-04-05T15:45:37.507Z,99068.92
2023-04-05T15:48:06.090Z,99068.21
2023-04-05T15:50:35.019Z,99064.64
2023-04-05T15:53:03.268Z,99058.91
2023-04-05T15:55:32.690Z,99055.28
2023-04-05T15:58:00.786Z,99063.62
2023-04-05T16:00:30.558Z,99070.38
2023-04-05T16:03:00.733Z,99066.10
2023-04-05T16:05:29.324Z,99068.84
2023-04-05T16:07:59.755Z,99066.92
2023-04-05T16:10:27.921Z,99058.54
2023-04-05T16:13:01.309Z,99062.40
2023-04-05T16:15:30.646Z,99065.27
2023-04-05T16:17:59.417Z,99057.78
2023-04-05T16:20:30.247Z,99059.45
2023-04-05T16:23:00.026Z,99068.23
2023-04-05T16:25:28.373Z,99068.42
2023-04-05T16:27:58.053Z,99060.98
2023-04-05T16:30:27.046Z,99060.77
2023-04-05T16:32:55.543Z,99060.25
2023-04-05T16:35:23.743Z,99056.88
2023-04-05T16:37:52.666Z,99056.83
2023-04-05T16:40:21.061Z,99057.16
2023-04-05T16:42:51.242Z,99057.63
2023-04-05T16:45:19.970Z,99059.95
2023-04-05T16:47:50.437Z,99061.39
2023-04-05T16:50:18.902Z,99063.59
2023-04-05T16:52:48.799Z,99067.29
2023-04-05T16:55:17.605Z,99070.69
2023-04-05T16:57:46.167Z,99066.64
2023-04-05T17:00:15.926Z,99064.33
2023-04-05T17:02:45.679Z,99063.17
2023-04-05T17:05:15.009Z,99063.95
2023-04-05T17:07:44.777Z,99062.43
2023-04-05T17:10:13.308Z,99068.90
2023-04-05T17:12:52.034Z,99070.44
2023-04-05T17:15:20.121Z,99079.66
2023-04-05T17:17:48.554Z,99082.94
2023-04-05T17:20:16.817Z,99082.71
2023-04-05T17:22:46.396Z,99083.05
2023-04-05T17:25:14.996Z,99083.10
2023-04-05T17:27:43.152Z,99081.19
2023-04-05T17:30:12.168Z,99087.78
2023-04-05T17:32:51.945Z,99090.84
2023-04-05T17:35:20.681Z,99090.85
2023-04-05T17:37:49.100Z,99089.61
2023-04-05T17:40:18.757Z,99090.75
2023-04-05T17:42:48.512Z,99093.21
2023-04-05T17:45:16.965Z,99089.66
2023-04-05T17:47:46.533Z,99087.19
2023-04-05T17:50:15.628Z,99090.98
2023-04-05T17:52:46.648Z,99088.53
2023-04-05T17:55:14.855Z,99092.21
2023-04-05T17:57:43.551Z,99092.90
2023-04-05T18:00:12.692Z,99083.66
2023-04-05T18:02:41.753Z,99088.10
2023-04-05T18:05:10.719Z,99087.54
2023-04-05T18:07:38.871Z,99086.38
2023-04-05T18:10:07.885Z,99084.11
2023-04-05T18:12:36.824Z,99082.17
2023-04-05T18:15:05.268Z,99081.12
2023-04-05T18:17:33.859Z,99079.54
2023-04-05T18:20:02.480Z,99076.09
2023-04-05T18:22:38.073Z,99075.57
2023-04-05T18:25:08.778Z,99074.85
2023-04-05T18:27:38.227Z,99074.77
2023-04-05T18:30:08.128Z,99074.18
2023-04-05T18:32:39.039Z,99071.35
2023-04-05T18:35:09.162Z,99073.88
2023-04-05T18:37:37.462Z,99076.24
2023-04-05T18:40:06.441Z,99066.66
2023-04-05T18:42:40.455Z,99062.85
2023-04-05T18:45:10.067Z,99064.55
2023-04-05T18:47:38.275Z,99063.05
2023-04-05T18:50:10.157Z,99064.39
2023-04-05T18:52:38.563Z,99057.73
2023-04-05T18:55:07.483Z,99051.04
2023-04-05T18:57:36.392Z,99051.36
2023-04-05T19:00:05.400Z,99045.58
2023-04-05T19:02:35.079Z,99045.18
2023-04-05T19:05:03.942Z,99048.43
2023-04-05T19:07:33.653Z,99042.47
2023-04-05T19:10:01.898Z,99041.76
2023-04-05T19:12:31.052Z,99042.75
2023-04-05T19:15:03.761Z,99045.85
2023-04-05T19:17:33.254Z,99041.97
2023-04-05T19:20:01.393Z,99041.55
2023-04-05T19:22:30.911Z,99041.42
2023-04-05T19:25:01.085Z,99038.36
2023-04-05T19:27:35.771Z,99034.56
2023-04-05T19:30:04.818Z,99033.59
2023-04-05T19:32:34.147Z,99029.90
2023-04-05T19:35:02.397Z,99029.86
2023-04-05T19:37:31.264Z,99030.19
2023-04-05T19:39:59.632Z,99018.48
2023-04-05T19:42:27.669Z,99020.10
2023-04-05T19:44:57.768Z,99014.52
2023-04-05T19:47:26.496Z,99012.90
2023-04-05T19:49:57.197Z,99012.63
2023-04-05T19:52:45.509Z,99006.12
2023-04-05T19:55:27.661Z,98999.96
2023-04-05T19:57:56.257Z,98994.27
2023-04-05T20:00:31.652Z,98994.64
2023-04-05T20:03:01.562Z,98997.00
2023-04-05T20:06:02.581Z,98993.04
2023-04-05T20:08:40.497Z,98989.79
2023-04-05T20:11:15.985Z,98988.54
2023-04-05T20:13:48.332Z,98992.48
2023-04-05T20:16:18.060Z,98986.87
2023-04-05T20:18:47.136Z,98986.10
2023-04-05T20:21:15.919Z,98980.68
2023-04-05T20:23:44.395Z,98986.96
2023-04-05T20:26:17.225Z,98980.65
2023-04-05T20:28:56.658Z,98976.34
2023-04-05T20:31:33.023Z,98977.35
2023-04-05T20:34:33.715Z,98970.04
2023-04-05T20:37:03.058Z,98962.71
2023-04-05T20:39:32.676Z,98962.33
2023-04-05T20:42:01.457Z,98951.58
2023-04-05T20:44:30.131Z,98953.11
2023-04-05T20:46:59.253Z,98951.39
2023-04-05T20:49:28.231Z,98947.92
2023-04-05T20:51:57.763Z,98940.23
2023-04-05T20:54:26.892Z,98939.10
2023-04-05T20:56:58.522Z,98934.94
2023-04-05T20:59:27.555Z,98928.55
2023-04-05T21:01:55.935Z,98930.83
2023-04-05T21:04:25.425Z,98923.88
2023-04-05T21:06:54.563Z,98924.02
2023-04-05T21:09:23.573Z,98922.34
2023-04-05T21:11:52.945Z,98918.57
2023-04-05T21:14:21.602Z,98919.23
2023-04-05T21:16:49.690Z,98920.43
2023-04-05T21:19:17.938Z,98916.88
2023-04-05T21:21:46.103Z,98912.46
2023-04-05T21:24:14.256Z,98910.89
2023-04-05T21:26:42.852Z,98912.39
2023-04-05T21:29:11.160Z,98908.96
2023-04-05T21:31:39.268Z,98905.75
2023-04-05T21:34:07.380Z,98907.73
2023-04-05T21:36:40.541Z,98908.69
2023-04-05T21:39:09.771Z,98904.26
2023-04-05T21:41:38.180Z,98907.32
2023-04-05T21:44:06.659Z,98903.69
2023-04-05T21:46:35.186Z,98901.63
2023-04-05T21:49:03.321Z,98906.30
2023-04-05T21:51:33.097Z,98898.91
2023-04-05T21:54:01.193Z,98901.36
2023-04-05T21:56:32.575Z,98898.85
2023-04-05T21:59:00.743Z,98894.97
2023-04-05T22:01:29.308Z,98898.21
2023-04-05T22:03:58.513Z,98894.90
2023-04-05T22:06:27.064Z,98896.44
2023-04-05T22:08:55.213Z,98895.78
2023-04-05T22:11:26.701Z,98890.58
2023-04-05T22:13:54.966Z,98888.59
2023-04-05T22:16:23.144Z,98890.92
2023-04-05T22:18:51.218Z,98889.10
2023-04-05T22:21:19.368Z,98886.06
2023-04-05T22:23:47.768Z,98887.91
2023-04-05T22:26:15.994Z,98882.98
2023-04-05T22:28:44.312Z,98878.09
2023-04-05T22:31:12.498Z,98880.53
2023-04-05T22:33:41.360Z,98878.78
2023-04-05T22:36:10.049Z,98878.30
2023-04-05T22:38:39.379Z,98875.46
2023-04-05T22:41:07.819Z,98876.42
2023-04-05T22:43:36.775Z,98872.88
2023-04-05T22:46:06.307Z,98869.33
2023-04-05T22:48:34.393Z,98864.05
2023-04-05T22:51:02.867Z,98860.87
2023-04-05T22:53:31.331Z,98862.23
2023-04-05T22:55:59.852Z,98860.98
2023-04-05T22:58:32.918Z,98864.96
2023-04-05T23:01:05.420Z,98864.59
2023-04-05T23:03:35.867Z,98861.09
2023-04-05T23:06:04.091Z,98858.79
2023-04-05T23:08:33.606Z,98862.73
2023-04-05T23:11:03.335Z,98862.03
2023-04-05T23:13:32.364Z,98860.61
2023-04-05T23:16:00.630Z,98854.64
2023-04-05T23:18:28.923Z,98851.48
2023-04-05T23:20:57.292Z,98858.59
2023-04-05T23:23:25.992Z,98859.11
2023-04-05T23:25:54.134Z,98858.20
2023-04-05T23:28:22.201Z,98856.21
2023-04-05T23:30:50.724Z,98856.17
2023-04-05T23:33:20.152Z,98853.73
2023-04-05T23:35:49.248Z,98851.11
2023-04-05T23:38:18.223Z,98849.31
2023-04-05T23:40:46.357Z,98849.61
2023-04-05T23:43:14.945Z,98845.55
2023-04-05T23:45:43.172Z,98843.05
2023-04-05T23:48:13.038Z,98843.52
2023-04-05T23:50:41.386Z,98843.31
2023-04-05T23:53:09.456Z,98843.78
2023-04-05T23:55:40.695Z,98844.43
2023-04-05T23:58:08.840Z,98838.86
